sensor_id;sensor_type;location;lat;lon;timestamp;P1;durP1;ratioP1;P2;durP2;ratioP2
61275;SDS011;61853;55.042;73.304;2022-09-09T00:09:35;5.57;;;2.40;;
61275;SDS011;61853;55.042;73.304;2022-09-09T00:12:06;4.13;;;2.38;;
61275;SDS011;61853;55.042;73.304;2022-09-09T00:17:14;4.18;;;2.20;;
61275;SDS011;61853;55.042;73.304;2022-09-09T00:19:53;4.13;;;2.33;;
61275;SDS011;61853;55.042;73.304;2022-09-09T00:22:22;3.67;;;2.28;;
61275;SDS011;61853;55.042;73.304;2022-09-09T00:25:42;4.88;;;2.17;;
61275;SDS011;61853;55.042;73.304;2022-09-09T00:27:48;6.13;;;2.08;;
61275;SDS011;61853;55.042;73.304;2022-09-09T00:30:25;5.25;;;2.13;;
61275;SDS011;61853;55.042;73.304;2022-09-09T00:32:55;4.53;;;2.17;;
61275;SDS011;61853;55.042;73.304;2022-09-09T00:35:25;3.78;;;2.08;;
61275;SDS011;61853;55.042;73.304;2022-09-09T00:37:53;4.03;;;2.28;;
61275;SDS011;61853;55.042;73.304;2022-09-09T00:48:32;4.85;;;2.50;;
61275;SDS011;61853;55.042;73.304;2022-09-09T00:51:05;4.00;;;2.67;;
61275;SDS011;61853;55.042;73.304;2022-09-09T00:53:39;8.77;;;3.05;;
61275;SDS011;61853;55.042;73.304;2022-09-09T00:56:20;9.35;;;2.88;;
61275;SDS011;61853;55.042;73.304;2022-09-09T00:58:54;11.00;;;3.30;;
61275;SDS011;61853;55.042;73.304;2022-09-09T01:01:23;24.67;;;3.70;;
61275;SDS011;61853;55.042;73.304;2022-09-09T01:04:00;21.67;;;3.47;;
61275;SDS011;61853;55.042;73.304;2022-09-09T01:11:25;12.93;;;3.75;;
61275;SDS011;61853;55.042;73.304;2022-09-09T01:13:56;45.63;;;4.25;;
61275;SDS011;61853;55.042;73.304;2022-09-09T01:16:26;22.02;;;4.55;;
61275;SDS011;61853;55.042;73.304;2022-09-09T01:18:54;24.23;;;4.32;;
61275;SDS011;61853;55.042;73.304;2022-09-09T01:27:24;27.77;;;4.43;;
61275;SDS011;61853;55.042;73.304;2022-09-09T01:29:50;18.63;;;4.82;;
61275;SDS011;61853;55.042;73.304;2022-09-09T01:35:02;11.88;;;3.45;;
61275;SDS011;61853;55.042;73.304;2022-09-09T01:37:29;12.35;;;3.90;;
61275;SDS011;61853;55.042;73.304;2022-09-09T01:39:55;12.13;;;3.67;;
61275;SDS011;61853;55.042;73.304;2022-09-09T01:42:21;7.90;;;3.72;;
61275;SDS011;61853;55.042;73.304;2022-09-09T01:44:46;8.30;;;3.70;;
61275;SDS011;61853;55.042;73.304;2022-09-09T01:47:14;5.90;;;3.33;;
61275;SDS011;61853;55.042;73.304;2022-09-09T01:49:57;9.35;;;3.17;;
61275;SDS011;61853;55.042;73.304;2022-09-09T01:52:26;6.97;;;3.30;;
61275;SDS011;61853;55.042;73.304;2022-09-09T01:54:52;5.80;;;3.58;;
61275;SDS011;61853;55.042;73.304;2022-09-09T01:57:24;14.13;;;3.42;;
61275;SDS011;61853;55.042;73.304;2022-09-09T02:02:32;7.35;;;3.55;;
61275;SDS011;61853;55.042;73.304;2022-09-09T02:07:38;8.77;;;3.63;;
61275;SDS011;61853;55.042;73.304;2022-09-09T02:10:12;8.10;;;3.40;;
61275;SDS011;61853;55.042;73.304;2022-09-09T02:12:49;9.45;;;3.72;;
61275;SDS011;61853;55.042;73.304;2022-09-09T02:15:24;7.13;;;3.25;;
61275;SDS011;61853;55.042;73.304;2022-09-09T02:17:51;7.28;;;3.38;;
61275;SDS011;61853;55.042;73.304;2022-09-09T02:20:19;6.13;;;3.67;;
61275;SDS011;61853;55.042;73.304;2022-09-09T02:22:55;7.63;;;3.40;;
61275;SDS011;61853;55.042;73.304;2022-09-09T02:25:23;8.45;;;3.40;;
61275;SDS011;61853;55.042;73.304;2022-09-09T02:27:51;8.30;;;3.60;;
61275;SDS011;61853;55.042;73.304;2022-09-09T02:30:18;6.57;;;3.90;;
61275;SDS011;61853;55.042;73.304;2022-09-09T02:32:50;5.10;;;3.35;;
61275;SDS011;61853;55.042;73.304;2022-09-09T02:35:18;9.15;;;3.30;;
61275;SDS011;61853;55.042;73.304;2022-09-09T02:37:46;14.65;;;3.40;;
61275;SDS011;61853;55.042;73.304;2022-09-09T02:40:12;15.30;;;3.70;;
61275;SDS011;61853;55.042;73.304;2022-09-09T02:42:50;9.95;;;3.13;;
61275;SDS011;61853;55.042;73.304;2022-09-09T02:45:23;10.38;;;3.03;;
61275;SDS011;61853;55.042;73.304;2022-09-09T02:55:24;6.47;;;2.58;;
61275;SDS011;61853;55.042;73.304;2022-09-09T02:57:55;9.27;;;2.42;;
61275;SDS011;61853;55.042;73.304;2022-09-09T03:00:22;13.20;;;2.83;;
61275;SDS011;61853;55.042;73.304;2022-09-09T03:02:50;5.25;;;2.13;;
61275;SDS011;61853;55.042;73.304;2022-09-09T03:05:16;5.25;;;1.83;;
61275;SDS011;61853;55.042;73.304;2022-09-09T03:07:42;8.75;;;1.90;;
61275;SDS011;61853;55.042;73.304;2022-09-09T03:10:09;3.38;;;1.90;;
61275;SDS011;61853;55.042;73.304;2022-09-09T03:12:41;6.95;;;2.30;;
61275;SDS011;61853;55.042;73.304;2022-09-09T03:15:07;8.48;;;2.60;;
61275;SDS011;61853;55.042;73.304;2022-09-09T03:17:43;7.40;;;2.28;;
61275;SDS011;61853;55.042;73.304;2022-09-09T03:20:10;5.72;;;2.13;;
61275;SDS011;61853;55.042;73.304;2022-09-09T03:22:37;12.23;;;2.30;;
61275;SDS011;61853;55.042;73.304;2022-09-09T03:25:03;11.80;;;2.25;;
61275;SDS011;61853;55.042;73.304;2022-09-09T03:27:29;6.57;;;2.13;;
61275;SDS011;61853;55.042;73.304;2022-09-09T03:29:56;14.13;;;2.10;;
61275;SDS011;61853;55.042;73.304;2022-09-09T03:32:24;13.02;;;2.78;;
61275;SDS011;61853;55.042;73.304;2022-09-09T03:34:52;6.78;;;2.42;;
61275;SDS011;61853;55.042;73.304;2022-09-09T03:37:18;6.13;;;2.47;;
61275;SDS011;61853;55.042;73.304;2022-09-09T03:39:45;6.35;;;2.13;;
61275;SDS011;61853;55.042;73.304;2022-09-09T03:42:12;9.07;;;2.47;;
61275;SDS011;61853;55.042;73.304;2022-09-09T03:44:42;6.07;;;2.15;;
61275;SDS011;61853;55.042;73.304;2022-09-09T03:47:09;6.30;;;1.90;;
61275;SDS011;61853;55.042;73.304;2022-09-09T03:49:45;8.80;;;2.13;;
61275;SDS011;61853;55.042;73.304;2022-09-09T03:52:12;7.90;;;1.80;;
61275;SDS011;61853;55.042;73.304;2022-09-09T03:54:38;2.72;;;1.60;;
61275;SDS011;61853;55.042;73.304;2022-09-09T03:57:04;18.92;;;2.63;;
61275;SDS011;61853;55.042;73.304;2022-09-09T03:59:36;7.10;;;2.55;;
61275;SDS011;61853;55.042;73.304;2022-09-09T04:02:02;8.07;;;1.42;;
61275;SDS011;61853;55.042;73.304;2022-09-09T04:04:29;7.22;;;1.98;;
61275;SDS011;61853;55.042;73.304;2022-09-09T04:06:54;2.65;;;1.60;;
61275;SDS011;61853;55.042;73.304;2022-09-09T04:09:20;18.17;;;2.10;;
61275;SDS011;61853;55.042;73.304;2022-09-09T04:11:48;7.97;;;1.80;;
61275;SDS011;61853;55.042;73.304;2022-09-09T04:14:15;4.47;;;1.95;;
61275;SDS011;61853;55.042;73.304;2022-09-09T04:16:41;9.52;;;2.00;;
61275;SDS011;61853;55.042;73.304;2022-09-09T04:19:16;8.05;;;2.08;;
61275;SDS011;61853;55.042;73.304;2022-09-09T04:21:43;10.07;;;2.50;;
61275;SDS011;61853;55.042;73.304;2022-09-09T04:24:08;4.90;;;1.85;;
61275;SDS011;61853;55.042;73.304;2022-09-09T04:26:44;5.20;;;1.83;;
61275;SDS011;61853;55.042;73.304;2022-09-09T04:29:16;2.53;;;1.50;;
61275;SDS011;61853;55.042;73.304;2022-09-09T04:31:42;3.90;;;1.30;;
61275;SDS011;61853;55.042;73.304;2022-09-09T04:34:09;5.15;;;1.20;;
61275;SDS011;61853;55.042;73.304;2022-09-09T04:36:35;5.47;;;0.85;;
61275;SDS011;61853;55.042;73.304;2022-09-09T04:39:08;5.45;;;1.00;;
61275;SDS011;61853;55.042;73.304;2022-09-09T04:41:33;5.70;;;1.20;;
61275;SDS011;61853;55.042;73.304;2022-09-09T04:43:59;1.67;;;1.00;;
61275;SDS011;61853;55.042;73.304;2022-09-09T04:46:26;5.25;;;1.00;;
61275;SDS011;61853;55.042;73.304;2022-09-09T04:48:52;8.68;;;1.40;;
61275;SDS011;61853;55.042;73.304;2022-09-09T04:51:20;4.70;;;1.10;;
61275;SDS011;61853;55.042;73.304;2022-09-09T04:53:48;2.08;;;1.15;;
61275;SDS011;61853;55.042;73.304;2022-09-09T04:56:17;7.18;;;1.13;;
61275;SDS011;61853;55.042;73.304;2022-09-09T04:58:53;1.80;;;1.00;;
61275;SDS011;61853;55.042;73.304;2022-09-09T05:01:23;14.88;;;1.30;;
61275;SDS011;61853;55.042;73.304;2022-09-09T05:03:51;4.55;;;0.90;;
61275;SDS011;61853;55.042;73.304;2022-09-09T05:06:22;2.30;;;1.07;;
61275;SDS011;61853;55.042;73.304;2022-09-09T05:08:51;3.45;;;0.82;;
61275;SDS011;61853;55.042;73.304;2022-09-09T05:11:23;4.82;;;0.90;;
61275;SDS011;61853;55.042;73.304;2022-09-09T05:13:52;7.57;;;1.00;;
61275;SDS011;61853;55.042;73.304;2022-09-09T05:16:29;3.33;;;0.90;;
61275;SDS011;61853;55.042;73.304;2022-09-09T05:19:05;2.42;;;0.85;;
61275;SDS011;61853;55.042;73.304;2022-09-09T05:21:50;4.85;;;1.02;;
61275;SDS011;61853;55.042;73.304;2022-09-09T05:24:20;4.40;;;1.00;;
61275;SDS011;61853;55.042;73.304;2022-09-09T05:26:48;3.55;;;1.10;;
61275;SDS011;61853;55.042;73.304;2022-09-09T05:29:14;3.15;;;1.05;;
61275;SDS011;61853;55.042;73.304;2022-09-09T05:31:40;6.45;;;1.00;;
61275;SDS011;61853;55.042;73.304;2022-09-09T05:34:10;4.72;;;1.20;;
61275;SDS011;61853;55.042;73.304;2022-09-09T05:36:37;1.08;;;0.70;;
61275;SDS011;61853;55.042;73.304;2022-09-09T05:39:06;8.30;;;1.48;;
61275;SDS011;61853;55.042;73.304;2022-09-09T05:41:33;4.00;;;1.10;;
61275;SDS011;61853;55.042;73.304;2022-09-09T05:44:02;2.50;;;1.02;;
61275;SDS011;61853;55.042;73.304;2022-09-09T05:46:30;5.55;;;1.00;;
61275;SDS011;61853;55.042;73.304;2022-09-09T05:48:56;9.15;;;1.27;;
61275;SDS011;61853;55.042;73.304;2022-09-09T05:51:29;6.78;;;1.20;;
61275;SDS011;61853;55.042;73.304;2022-09-09T05:54:02;2.83;;;1.17;;
61275;SDS011;61853;55.042;73.304;2022-09-09T05:56:32;8.88;;;1.33;;
61275;SDS011;61853;55.042;73.304;2022-09-09T05:59:04;7.25;;;1.15;;
61275;SDS011;61853;55.042;73.304;2022-09-09T06:01:36;4.03;;;1.10;;
61275;SDS011;61853;55.042;73.304;2022-09-09T06:04:18;9.93;;;1.30;;
61275;SDS011;61853;55.042;73.304;2022-09-09T06:06:51;20.98;;;10.63;;
61275;SDS011;61853;55.042;73.304;2022-09-09T06:09:20;3.47;;;1.30;;
61275;SDS011;61853;55.042;73.304;2022-09-09T06:11:46;7.85;;;1.30;;
61275;SDS011;61853;55.042;73.304;2022-09-09T06:14:13;3.72;;;1.45;;
61275;SDS011;61853;55.042;73.304;2022-09-09T06:16:41;3.95;;;1.20;;
61275;SDS011;61853;55.042;73.304;2022-09-09T06:19:29;4.20;;;1.70;;
61275;SDS011;61853;55.042;73.304;2022-09-09T06:21:58;8.90;;;1.60;;
61275;SDS011;61853;55.042;73.304;2022-09-09T06:24:25;2.78;;;1.00;;
61275;SDS011;61853;55.042;73.304;2022-09-09T06:26:53;3.60;;;1.17;;
61275;SDS011;61853;55.042;73.304;2022-09-09T06:29:28;2.28;;;0.85;;
61275;SDS011;61853;55.042;73.304;2022-09-09T06:31:53;2.00;;;0.77;;
61275;SDS011;61853;55.042;73.304;2022-09-09T06:34:21;4.72;;;1.02;;
61275;SDS011;61853;55.042;73.304;2022-09-09T06:36:51;9.20;;;1.75;;
61275;SDS011;61853;55.042;73.304;2022-09-09T06:39:17;3.78;;;1.02;;
61275;SDS011;61853;55.042;73.304;2022-09-09T06:41:49;2.35;;;1.00;;
61275;SDS011;61853;55.042;73.304;2022-09-09T06:44:44;5.65;;;1.10;;
61275;SDS011;61853;55.042;73.304;2022-09-09T06:47:16;6.57;;;1.30;;
61275;SDS011;61853;55.042;73.304;2022-09-09T06:49:42;10.40;;;1.33;;
61275;SDS011;61853;55.042;73.304;2022-09-09T06:52:20;8.35;;;2.13;;
61275;SDS011;61853;55.042;73.304;2022-09-09T06:54:46;6.10;;;1.27;;
61275;SDS011;61853;55.042;73.304;2022-09-09T06:57:24;6.38;;;1.90;;
61275;SDS011;61853;55.042;73.304;2022-09-09T06:59:50;7.55;;;1.27;;
61275;SDS011;61853;55.042;73.304;2022-09-09T07:02:16;5.93;;;1.40;;
61275;SDS011;61853;55.042;73.304;2022-09-09T07:04:43;6.85;;;1.30;;
61275;SDS011;61853;55.042;73.304;2022-09-09T07:07:09;6.15;;;1.35;;
61275;SDS011;61853;55.042;73.304;2022-09-09T07:09:37;6.55;;;1.30;;
61275;SDS011;61853;55.042;73.304;2022-09-09T07:12:03;4.80;;;1.23;;
61275;SDS011;61853;55.042;73.304;2022-09-09T07:14:33;8.57;;;1.17;;
61275;SDS011;61853;55.042;73.304;2022-09-09T07:17:03;13.10;;;1.42;;
61275;SDS011;61853;55.042;73.304;2022-09-09T07:19:45;8.63;;;1.40;;
61275;SDS011;61853;55.042;73.304;2022-09-09T07:22:13;4.47;;;1.20;;
61275;SDS011;61853;55.042;73.304;2022-09-09T07:24:43;2.95;;;1.10;;
61275;SDS011;61853;55.042;73.304;2022-09-09T07:27:10;9.48;;;1.98;;
61275;SDS011;61853;55.042;73.304;2022-09-09T07:29:37;18.35;;;1.80;;
61275;SDS011;61853;55.042;73.304;2022-09-09T07:32:04;2.47;;;0.90;;
61275;SDS011;61853;55.042;73.304;2022-09-09T07:34:34;5.32;;;1.00;;
61275;SDS011;61853;55.042;73.304;2022-09-09T07:36:59;10.27;;;1.20;;
61275;SDS011;61853;55.042;73.304;2022-09-09T07:39:26;3.22;;;1.00;;
61275;SDS011;61853;55.042;73.304;2022-09-09T07:41:53;3.47;;;1.00;;
61275;SDS011;61853;55.042;73.304;2022-09-09T07:44:27;9.02;;;1.20;;
61275;SDS011;61853;55.042;73.304;2022-09-09T07:46:59;6.30;;;3.55;;
61275;SDS011;61853;55.042;73.304;2022-09-09T07:49:32;7.78;;;1.00;;
61275;SDS011;61853;55.042;73.304;2022-09-09T07:51:59;3.10;;;1.15;;
61275;SDS011;61853;55.042;73.304;2022-09-09T07:54:25;4.63;;;1.02;;
61275;SDS011;61853;55.042;73.304;2022-09-09T07:56:52;2.78;;;1.10;;
61275;SDS011;61853;55.042;73.304;2022-09-09T07:59:21;4.03;;;1.38;;
61275;SDS011;61853;55.042;73.304;2022-09-09T08:01:56;7.05;;;1.20;;
61275;SDS011;61853;55.042;73.304;2022-09-09T08:04:26;7.10;;;1.20;;
61275;SDS011;61853;55.042;73.304;2022-09-09T08:07:05;5.90;;;1.10;;
61275;SDS011;61853;55.042;73.304;2022-09-09T08:09:50;8.20;;;1.20;;
61275;SDS011;61853;55.042;73.304;2022-09-09T08:12:27;3.25;;;1.00;;
61275;SDS011;61853;55.042;73.304;2022-09-09T08:14:53;8.52;;;1.15;;
61275;SDS011;61853;55.042;73.304;2022-09-09T08:17:20;14.45;;;1.70;;
61275;SDS011;61853;55.042;73.304;2022-09-09T08:19:47;6.07;;;1.10;;
61275;SDS011;61853;55.042;73.304;2022-09-09T08:22:18;8.00;;;1.40;;
61275;SDS011;61853;55.042;73.304;2022-09-09T08:24:44;7.53;;;1.30;;
61275;SDS011;61853;55.042;73.304;2022-09-09T08:27:11;7.15;;;2.00;;
61275;SDS011;61853;55.042;73.304;2022-09-09T08:29:42;5.20;;;1.30;;
61275;SDS011;61853;55.042;73.304;2022-09-09T08:32:15;3.10;;;1.60;;
61275;SDS011;61853;55.042;73.304;2022-09-09T08:34:43;6.75;;;1.52;;
61275;SDS011;61853;55.042;73.304;2022-09-09T08:37:14;7.95;;;2.00;;
61275;SDS011;61853;55.042;73.304;2022-09-09T08:39:52;8.48;;;1.55;;
61275;SDS011;61853;55.042;73.304;2022-09-09T08:45:14;13.45;;;1.60;;
61275;SDS011;61853;55.042;73.304;2022-09-09T08:53:22;3.47;;;1.30;;
61275;SDS011;61853;55.042;73.304;2022-09-09T08:58:33;7.63;;;1.40;;
61275;SDS011;61853;55.042;73.304;2022-09-09T09:03:52;6.22;;;1.23;;
61275;SDS011;61853;55.042;73.304;2022-09-09T09:11:43;5.57;;;1.30;;
61275;SDS011;61853;55.042;73.304;2022-09-09T09:14:17;5.30;;;1.70;;
61275;SDS011;61853;55.042;73.304;2022-09-09T09:17:01;5.70;;;1.58;;
61275;SDS011;61853;55.042;73.304;2022-09-09T09:19:33;8.10;;;1.48;;
61275;SDS011;61853;55.042;73.304;2022-09-09T09:25:11;7.00;;;1.80;;
61275;SDS011;61853;55.042;73.304;2022-09-09T09:30:21;10.13;;;1.55;;
61275;SDS011;61853;55.042;73.304;2022-09-09T09:35:24;13.32;;;1.60;;
61275;SDS011;61853;55.042;73.304;2022-09-09T09:37:50;8.27;;;1.70;;
61275;SDS011;61853;55.042;73.304;2022-09-09T09:40:21;4.78;;;1.60;;
61275;SDS011;61853;55.042;73.304;2022-09-09T09:42:49;5.32;;;1.60;;
61275;SDS011;61853;55.042;73.304;2022-09-09T09:48:06;2.70;;;1.55;;
61275;SDS011;61853;55.042;73.304;2022-09-09T09:53:25;8.02;;;1.50;;
61275;SDS011;61853;55.042;73.304;2022-09-09T09:56:03;3.25;;;1.60;;
61275;SDS011;61853;55.042;73.304;2022-09-09T09:58:47;7.20;;;1.80;;
61275;SDS011;61853;55.042;73.304;2022-09-09T10:01:24;3.85;;;1.60;;
61275;SDS011;61853;55.042;73.304;2022-09-09T10:03:52;5.25;;;1.60;;
61275;SDS011;61853;55.042;73.304;2022-09-09T10:06:29;6.40;;;1.52;;
61275;SDS011;61853;55.042;73.304;2022-09-09T10:08:55;11.48;;;1.90;;
61275;SDS011;61853;55.042;73.304;2022-09-09T10:14:30;4.82;;;1.75;;
61275;SDS011;61853;55.042;73.304;2022-09-09T10:19:33;5.47;;;1.80;;
61275;SDS011;61853;55.042;73.304;2022-09-09T10:24:29;8.85;;;2.00;;
61275;SDS011;61853;55.042;73.304;2022-09-09T10:27:11;9.20;;;1.90;;
61275;SDS011;61853;55.042;73.304;2022-09-09T10:34:55;5.82;;;1.75;;
61275;SDS011;61853;55.042;73.304;2022-09-09T10:42:46;10.75;;;2.50;;
61275;SDS011;61853;55.042;73.304;2022-09-09T10:45:38;13.20;;;3.13;;
61275;SDS011;61853;55.042;73.304;2022-09-09T10:58:05;3.67;;;2.17;;
61275;SDS011;61853;55.042;73.304;2022-09-09T11:00:44;3.50;;;1.95;;
61275;SDS011;61853;55.042;73.304;2022-09-09T11:03:15;9.30;;;2.10;;
61275;SDS011;61853;55.042;73.304;2022-09-09T11:05:45;8.77;;;2.15;;
61275;SDS011;61853;55.042;73.304;2022-09-09T11:08:13;8.18;;;1.98;;
61275;SDS011;61853;55.042;73.304;2022-09-09T11:10:40;11.60;;;2.20;;
61275;SDS011;61853;55.042;73.304;2022-09-09T11:13:49;11.20;;;1.85;;
61275;SDS011;61853;55.042;73.304;2022-09-09T11:16:04;9.98;;;2.10;;
61275;SDS011;61853;55.042;73.304;2022-09-09T11:18:40;6.47;;;2.05;;
61275;SDS011;61853;55.042;73.304;2022-09-09T11:21:10;10.52;;;2.03;;
61275;SDS011;61853;55.042;73.304;2022-09-09T11:23:41;10.20;;;2.42;;
61275;SDS011;61853;55.042;73.304;2022-09-09T11:26:16;13.60;;;2.47;;
61275;SDS011;61853;55.042;73.304;2022-09-09T11:44:41;9.50;;;2.42;;
61275;SDS011;61853;55.042;73.304;2022-09-09T11:47:30;8.45;;;2.65;;
61275;SDS011;61853;55.042;73.304;2022-09-09T11:52:36;11.52;;;2.35;;
61275;SDS011;61853;55.042;73.304;2022-09-09T11:58:05;6.55;;;2.00;;
61275;SDS011;61853;55.042;73.304;2022-09-09T12:00:43;10.43;;;1.67;;
61275;SDS011;61853;55.042;73.304;2022-09-09T12:06:13;4.75;;;1.90;;
61275;SDS011;61853;55.042;73.304;2022-09-09T12:08:51;8.48;;;1.90;;
61275;SDS011;61853;55.042;73.304;2022-09-09T12:11:24;5.25;;;2.50;;
61275;SDS011;61853;55.042;73.304;2022-09-09T12:14:01;7.00;;;3.22;;
61275;SDS011;61853;55.042;73.304;2022-09-09T12:16:28;17.83;;;3.85;;
61275;SDS011;61853;55.042;73.304;2022-09-09T12:19:05;15.25;;;5.55;;
61275;SDS011;61853;55.042;73.304;2022-09-09T12:21:44;10.82;;;6.63;;
61275;SDS011;61853;55.042;73.304;2022-09-09T12:24:13;19.77;;;7.03;;
61275;SDS011;61853;55.042;73.304;2022-09-09T12:29:43;16.15;;;7.88;;
61275;SDS011;61853;55.042;73.304;2022-09-09T12:32:25;20.00;;;8.32;;
61275;SDS011;61853;55.042;73.304;2022-09-09T12:35:09;14.73;;;9.05;;
61275;SDS011;61853;55.042;73.304;2022-09-09T12:37:48;11.88;;;7.97;;
61275;SDS011;61853;55.042;73.304;2022-09-09T12:40:53;19.83;;;9.95;;
61275;SDS011;61853;55.042;73.304;2022-09-09T12:43:21;21.48;;;9.00;;
61275;SDS011;61853;55.042;73.304;2022-09-09T12:45:47;15.82;;;9.52;;
61275;SDS011;61853;55.042;73.304;2022-09-09T12:48:16;19.58;;;9.73;;
61275;SDS011;61853;55.042;73.304;2022-09-09T12:50:44;15.50;;;9.35;;
61275;SDS011;61853;55.042;73.304;2022-09-09T12:53:27;24.80;;;9.65;;
61275;SDS011;61853;55.042;73.304;2022-09-09T12:55:56;24.30;;;8.43;;
61275;SDS011;61853;55.042;73.304;2022-09-09T12:58:22;18.70;;;8.50;;
61275;SDS011;61853;55.042;73.304;2022-09-09T13:00:49;13.27;;;6.20;;
61275;SDS011;61853;55.042;73.304;2022-09-09T13:03:26;14.45;;;6.97;;
61275;SDS011;61853;55.042;73.304;2022-09-09T13:05:52;12.95;;;5.97;;
61275;SDS011;61853;55.042;73.304;2022-09-09T13:08:18;16.52;;;5.90;;
61275;SDS011;61853;55.042;73.304;2022-09-09T13:11:31;14.93;;;4.70;;
61275;SDS011;61853;55.042;73.304;2022-09-09T13:13:37;7.38;;;3.35;;
61275;SDS011;61853;55.042;73.304;2022-09-09T13:16:43;11.57;;;4.40;;
61275;SDS011;61853;55.042;73.304;2022-09-09T13:19:06;11.55;;;3.45;;
61275;SDS011;61853;55.042;73.304;2022-09-09T13:21:38;8.23;;;2.65;;
61275;SDS011;61853;55.042;73.304;2022-09-09T13:24:47;6.25;;;3.25;;
61275;SDS011;61853;55.042;73.304;2022-09-09T13:27:26;11.55;;;3.53;;
61275;SDS011;61853;55.042;73.304;2022-09-09T13:29:53;10.18;;;3.63;;
61275;SDS011;61853;55.042;73.304;2022-09-09T13:32:23;10.43;;;4.22;;
61275;SDS011;61853;55.042;73.304;2022-09-09T13:34:55;11.25;;;3.75;;
61275;SDS011;61853;55.042;73.304;2022-09-09T13:37:43;10.90;;;3.85;;
61275;SDS011;61853;55.042;73.304;2022-09-09T13:40:17;10.00;;;3.35;;
61275;SDS011;61853;55.042;73.304;2022-09-09T13:42:43;14.50;;;4.20;;
61275;SDS011;61853;55.042;73.304;2022-09-09T13:45:19;11.48;;;4.50;;
61275;SDS011;61853;55.042;73.304;2022-09-09T13:47:51;16.42;;;4.68;;
61275;SDS011;61853;55.042;73.304;2022-09-09T13:50:19;10.43;;;4.90;;
61275;SDS011;61853;55.042;73.304;2022-09-09T13:52:51;11.43;;;4.22;;
61275;SDS011;61853;55.042;73.304;2022-09-09T13:55:19;13.30;;;5.65;;
61275;SDS011;61853;55.042;73.304;2022-09-09T13:58:14;11.57;;;5.53;;
61275;SDS011;61853;55.042;73.304;2022-09-09T14:00:41;15.45;;;6.03;;
61275;SDS011;61853;55.042;73.304;2022-09-09T14:03:06;17.88;;;5.93;;
61275;SDS011;61853;55.042;73.304;2022-09-09T14:05:33;12.55;;;6.25;;
61275;SDS011;61853;55.042;73.304;2022-09-09T14:07:59;22.15;;;6.15;;
61275;SDS011;61853;55.042;73.304;2022-09-09T14:10:28;13.98;;;5.60;;
61275;SDS011;61853;55.042;73.304;2022-09-09T14:12:59;18.75;;;6.03;;
61275;SDS011;61853;55.042;73.304;2022-09-09T14:15:24;17.60;;;6.72;;
61275;SDS011;61853;55.042;73.304;2022-09-09T14:17:50;21.70;;;6.38;;
61275;SDS011;61853;55.042;73.304;2022-09-09T14:20:22;21.55;;;6.20;;
61275;SDS011;61853;55.042;73.304;2022-09-09T14:22:48;19.08;;;6.18;;
61275;SDS011;61853;55.042;73.304;2022-09-09T14:25:24;19.42;;;7.47;;
61275;SDS011;61853;55.042;73.304;2022-09-09T14:27:54;20.05;;;8.68;;
61275;SDS011;61853;55.042;73.304;2022-09-09T14:30:19;17.27;;;7.93;;
61275;SDS011;61853;55.042;73.304;2022-09-09T14:32:51;24.55;;;7.70;;
61275;SDS011;61853;55.042;73.304;2022-09-09T14:35:27;13.80;;;6.63;;
61275;SDS011;61853;55.042;73.304;2022-09-09T14:37:58;17.17;;;7.32;;
61275;SDS011;61853;55.042;73.304;2022-09-09T14:40:24;17.30;;;6.85;;
61275;SDS011;61853;55.042;73.304;2022-09-09T14:42:49;25.98;;;9.55;;
61275;SDS011;61853;55.042;73.304;2022-09-09T14:45:15;21.33;;;8.75;;
61275;SDS011;61853;55.042;73.304;2022-09-09T14:47:41;22.85;;;11.70;;
61275;SDS011;61853;55.042;73.304;2022-09-09T14:50:12;24.77;;;10.63;;
61275;SDS011;61853;55.042;73.304;2022-09-09T14:52:42;20.70;;;11.45;;
61275;SDS011;61853;55.042;73.304;2022-09-09T14:55:08;37.15;;;11.65;;
61275;SDS011;61853;55.042;73.304;2022-09-09T14:57:39;23.58;;;10.73;;
61275;SDS011;61853;55.042;73.304;2022-09-09T15:00:06;23.35;;;9.77;;
61275;SDS011;61853;55.042;73.304;2022-09-09T15:02:32;20.10;;;10.43;;
61275;SDS011;61853;55.042;73.304;2022-09-09T15:05:08;20.75;;;11.13;;
61275;SDS011;61853;55.042;73.304;2022-09-09T15:07:39;22.88;;;11.20;;
61275;SDS011;61853;55.042;73.304;2022-09-09T15:10:05;26.83;;;11.63;;
61275;SDS011;61853;55.042;73.304;2022-09-09T15:12:32;25.23;;;11.10;;
61275;SDS011;61853;55.042;73.304;2022-09-09T15:15:03;24.65;;;10.80;;
61275;SDS011;61853;55.042;73.304;2022-09-09T15:17:35;22.25;;;11.40;;
61275;SDS011;61853;55.042;73.304;2022-09-09T15:20:12;27.67;;;11.27;;
61275;SDS011;61853;55.042;73.304;2022-09-09T15:22:46;26.45;;;10.70;;
61275;SDS011;61853;55.042;73.304;2022-09-09T15:25:12;28.27;;;9.68;;
61275;SDS011;61853;55.042;73.304;2022-09-09T15:27:42;26.35;;;11.65;;
61275;SDS011;61853;55.042;73.304;2022-09-09T15:30:09;27.73;;;11.55;;
61275;SDS011;61853;55.042;73.304;2022-09-09T15:32:40;26.80;;;11.43;;
61275;SDS011;61853;55.042;73.304;2022-09-09T15:35:06;22.52;;;9.77;;
61275;SDS011;61853;55.042;73.304;2022-09-09T15:37:41;24.98;;;9.65;;
61275;SDS011;61853;55.042;73.304;2022-09-09T15:40:13;23.48;;;11.38;;
61275;SDS011;61853;55.042;73.304;2022-09-09T15:42:39;29.10;;;11.43;;
61275;SDS011;61853;55.042;73.304;2022-09-09T15:45:05;22.63;;;10.93;;
61275;SDS011;61853;55.042;73.304;2022-09-09T15:47:31;28.00;;;11.85;;
61275;SDS011;61853;55.042;73.304;2022-09-09T15:50:04;25.75;;;11.70;;
61275;SDS011;61853;55.042;73.304;2022-09-09T15:52:29;24.27;;;9.35;;
61275;SDS011;61853;55.042;73.304;2022-09-09T15:54:55;22.13;;;10.88;;
61275;SDS011;61853;55.042;73.304;2022-09-09T15:57:21;22.70;;;11.52;;
61275;SDS011;61853;55.042;73.304;2022-09-09T15:59:47;32.75;;;12.07;;
61275;SDS011;61853;55.042;73.304;2022-09-09T16:02:13;30.70;;;12.50;;
61275;SDS011;61853;55.042;73.304;2022-09-09T16:04:39;22.00;;;10.68;;
61275;SDS011;61853;55.042;73.304;2022-09-09T16:07:05;23.38;;;7.60;;
61275;SDS011;61853;55.042;73.304;2022-09-09T16:09:31;20.50;;;7.55;;
61275;SDS011;61853;55.042;73.304;2022-09-09T16:12:07;14.55;;;6.85;;
61275;SDS011;61853;55.042;73.304;2022-09-09T16:14:44;19.92;;;7.53;;
61275;SDS011;61853;55.042;73.304;2022-09-09T16:17:10;17.58;;;8.05;;
61275;SDS011;61853;55.042;73.304;2022-09-09T16:19:41;19.42;;;6.18;;
61275;SDS011;61853;55.042;73.304;2022-09-09T16:22:07;14.65;;;7.55;;
61275;SDS011;61853;55.042;73.304;2022-09-09T16:24:37;17.10;;;6.15;;
61275;SDS011;61853;55.042;73.304;2022-09-09T16:27:04;17.65;;;6.25;;
61275;SDS011;61853;55.042;73.304;2022-09-09T16:29:30;14.32;;;6.25;;
61275;SDS011;61853;55.042;73.304;2022-09-09T16:31:57;18.40;;;8.63;;
61275;SDS011;61853;55.042;73.304;2022-09-09T16:34:22;14.40;;;7.40;;
61275;SDS011;61853;55.042;73.304;2022-09-09T16:36:48;12.38;;;5.03;;
61275;SDS011;61853;55.042;73.304;2022-09-09T16:39:24;15.10;;;7.70;;
61275;SDS011;61853;55.042;73.304;2022-09-09T16:41:51;16.13;;;8.13;;
61275;SDS011;61853;55.042;73.304;2022-09-09T16:46:58;13.23;;;5.55;;
61275;SDS011;61853;55.042;73.304;2022-09-09T16:49:24;19.42;;;9.57;;
61275;SDS011;61853;55.042;73.304;2022-09-09T16:51:58;15.52;;;6.13;;
61275;SDS011;61853;55.042;73.304;2022-09-09T16:54:28;21.40;;;5.95;;
61275;SDS011;61853;55.042;73.304;2022-09-09T16:56:59;12.77;;;5.32;;
61275;SDS011;61853;55.042;73.304;2022-09-09T16:59:30;17.52;;;5.47;;
61275;SDS011;61853;55.042;73.304;2022-09-09T17:01:57;12.23;;;4.93;;
61275;SDS011;61853;55.042;73.304;2022-09-09T17:04:25;12.77;;;5.30;;
61275;SDS011;61853;55.042;73.304;2022-09-09T17:06:55;18.33;;;5.63;;